Terminal Aerodrome Forecast
Issued by NWS Wilmington, OH

Current Version | Previous Version | Text Only | Print | Product List | Glossary Off
Versions: 1 2 3 4 5 6 7 8 9 10 11 12 13 14 15 16 17 18 19 20 21 22 23 24 25 26 27 28 29

000
FTUS41 KILN 261500 AAA
TAFDAY
TAF AMD
KDAY 261510Z 2615/2712 19014G22KT P6SM SCT035
     FM261800 19016G24KT P6SM VCTS BKN040CB
      TEMPO 2619/2622 3SM TSRA BR OVC020CB
     FM270100 20014KT P6SM SCT040 BKN250
     FM270600 20012KT P6SM BKN010=

USA.gov is the U.S. government's official web portal to all federal, state and local government web resources and services.